Time;durP1;ratioP1;P1;durP2;ratioP2;P2;SDS_P1;SDS_P2;PMS_P1;PMS_P2;Temp;Humidity;BMP_temperature;BMP_pressure;BME280_temperature;BME280_humidity;BME280_pressure;Samples;Min_cycle;Max_cycle;Signal;HPM_P1;HPM_P2
2022/01/18 00:01:59;;;;;;;56.63;7.93;;;7.50;99.90;;;;;;5076245;28;20056;-79
2022/01/18 00:04:27;;;;;;;49.65;6.70;;;7.50;99.90;;;;;;5080719;28;20404;-78
2022/01/18 00:06:53;;;;;;;50.53;7.50;;;7.60;99.90;;;;;;5046925;28;20044;-78
2022/01/18 00:09:22;;;;;;;60.40;7.40;;;7.50;99.90;;;;;;5067774;28;20072;-79
2022/01/18 00:11:57;;;;;;;71.65;9.80;;;7.60;99.90;;;;;;5065248;28;20526;-80
2022/01/18 00:14:38;;;;;;;52.55;6.60;;;7.60;99.90;;;;;;5058837;28;20408;-80
2022/01/18 00:17:18;;;;;;;62.50;7.93;;;7.60;99.90;;;;;;5068121;28;20102;-80
2022/01/18 00:19:55;;;;;;;55.10;7.25;;;7.50;99.90;;;;;;5072195;28;20062;-80
2022/01/18 00:22:22;;;;;;;;;;;7.40;99.90;;;;;;5085438;28;20044;-78
2022/01/18 00:24:47;;;;;;;59.13;6.65;;;7.40;99.90;;;;;;5094973;28;20358;-79
2022/01/18 00:27:16;;;;;;;43.00;6.03;;;7.30;99.90;;;;;;5065042;28;20065;-82
2022/01/18 00:29:54;;;;;;;49.50;6.88;;;7.30;99.90;;;;;;5084542;28;20048;-78
2022/01/18 00:32:55;;;;;;;53.05;6.43;;;7.20;99.90;;;;;;5092674;28;20090;-78
2022/01/18 00:35:06;;;;;;;57.95;7.05;;;7.20;99.90;;;;;;5087123;28;20058;-78
2022/01/18 00:37:37;;;;;;;62.92;8.00;;;7.00;99.90;;;;;;5089429;28;20140;-79
2022/01/18 00:40:05;;;;;;;55.35;7.63;;;7.00;99.90;;;;;;5069724;28;20049;-79
2022/01/18 00:42:31;;;;;;;50.33;7.32;;;7.00;99.90;;;;;;5072107;28;20048;-81
2022/01/18 00:44:57;;;;;;;61.75;6.93;;;7.00;99.90;;;;;;5072748;28;20048;-78
2022/01/18 00:47:23;;;;;;;48.30;7.13;;;7.00;99.90;;;;;;5044979;28;20576;-79
2022/01/18 00:49:57;;;;;;;65.78;8.85;;;7.00;99.90;;;;;;5067827;28;20104;-80
2022/01/18 00:52:24;;;;;;;49.72;7.45;;;7.10;99.90;;;;;;5091371;28;20092;-80
2022/01/18 00:54:50;;;;;;;61.80;8.05;;;7.00;99.90;;;;;;5078382;28;20127;-79
2022/01/18 00:57:15;;;;;;;50.53;6.45;;;7.00;99.90;;;;;;5062264;28;20123;-82
2022/01/18 00:59:42;;;;;;;66.25;7.78;;;6.90;99.90;;;;;;5069817;28;20370;-78
2022/01/18 01:02:09;;;;;;;71.50;7.55;;;6.90;99.90;;;;;;5064756;28;20066;-79
2022/01/18 01:04:37;;;;;;;54.38;7.25;;;6.90;99.90;;;;;;5092330;28;20101;-78
2022/01/18 01:07:03;;;;;;;65.85;6.82;;;6.90;99.90;;;;;;5078983;28;20055;-79
2022/01/18 01:09:28;;;;;;;52.17;7.47;;;6.90;99.90;;;;;;5077176;28;20128;-79
2022/01/18 01:11:54;;;;;;;50.53;6.15;;;6.90;99.90;;;;;;5063843;28;20051;-79
2022/01/18 01:14:23;;;;;;;48.65;6.32;;;6.80;99.90;;;;;;5058060;28;20048;-78
2022/01/18 01:43:28;;;;;;;57.87;6.90;;;6.80;99.90;;;;;;5066579;28;20078;-83
2022/01/18 01:45:55;;;;;;;56.58;7.70;;;6.80;99.90;;;;;;5070071;28;20112;-80
2022/01/18 01:48:24;;;;;;;56.67;8.63;;;6.80;99.90;;;;;;5064587;28;20060;-85
2022/01/18 01:50:51;;;;;;;49.83;7.75;;;6.80;99.90;;;;;;5049730;28;20095;-79
2022/01/18 01:53:20;;;;;;;60.90;7.10;;;6.80;99.90;;;;;;5049893;28;20048;-78
2022/01/18 01:55:47;;;;;;;59.22;7.47;;;6.80;99.90;;;;;;5062210;28;20043;-78
2022/01/18 01:58:14;;;;;;;66.93;7.75;;;6.80;99.90;;;;;;5067136;28;20127;-79
2022/01/18 02:00:46;;;;;;;57.10;7.28;;;6.80;99.90;;;;;;5073225;28;20036;-78
2022/01/18 02:03:13;;;;;;;50.47;6.63;;;6.80;99.90;;;;;;5053690;28;20048;-78
2022/01/18 02:05:39;;;;;;;49.05;7.90;;;6.80;99.90;;;;;;5067584;28;20054;-80
2022/01/18 02:08:08;;;;;;;62.83;8.15;;;6.80;99.90;;;;;;5052779;28;20090;-79
2022/01/18 02:10:39;;;;;;;54.72;8.00;;;6.80;99.90;;;;;;5073537;28;20471;-79
2022/01/18 02:13:06;;;;;;;62.20;7.30;;;6.80;99.90;;;;;;5053475;28;20126;-78
2022/01/18 02:15:36;;;;;;;54.03;8.30;;;6.80;99.90;;;;;;5050750;28;20127;-78
2022/01/18 02:23:31;;;;;;;50.00;7.30;;;6.80;99.90;;;;;;5055327;28;20056;-78
2022/01/18 02:25:57;;;;;;;49.05;7.88;;;6.80;99.90;;;;;;5066390;28;20040;-78
2022/01/18 02:28:26;;;;;;;48.22;6.90;;;6.80;99.90;;;;;;5065267;28;20080;-78
2022/01/18 02:30:53;;;;;;;68.07;7.38;;;6.80;99.90;;;;;;5047696;28;20048;-77
2022/01/18 02:33:18;;;;;;;56.85;7.18;;;6.90;99.90;;;;;;5055130;28;20043;-78
2022/01/18 02:35:46;;;;;;;50.92;7.93;;;6.90;99.90;;;;;;5066172;28;20524;-78
2022/01/18 02:38:12;;;;;;;47.42;6.90;;;6.90;99.90;;;;;;5038573;28;20102;-78
2022/01/18 02:40:37;;;;;;;54.30;7.28;;;6.90;99.90;;;;;;5058806;28;20052;-78
2022/01/18 02:45:52;;;;;;;39.80;7.03;;;6.90;99.90;;;;;;5066597;28;20134;-82
2022/01/18 02:48:20;;;;;;;42.08;7.07;;;6.90;99.90;;;;;;5069025;28;20102;-78
2022/01/18 02:50:46;;;;;;;43.55;6.68;;;6.80;99.90;;;;;;5081719;28;20044;-79
2022/01/18 02:53:12;;;;;;;51.63;6.70;;;6.80;99.90;;;;;;5066446;28;20043;-79
2022/01/18 02:55:38;;;;;;;59.42;7.10;;;6.80;99.90;;;;;;5077763;28;20055;-79
2022/01/18 02:58:09;;;;;;;54.22;7.38;;;6.80;99.90;;;;;;5074230;28;20052;-78
2022/01/18 03:03:10;;;;;;;42.75;5.68;;;6.80;99.90;;;;;;5061772;28;20555;-79
2022/01/18 03:03:28;;;;;;;45.88;5.88;;;6.80;99.90;;;;;;5075958;28;20469;-79
2022/01/18 03:05:55;;;;;;;38.25;5.18;;;6.70;99.90;;;;;;5081335;28;20128;-78
2022/01/18 03:08:21;;;;;;;40.53;6.07;;;6.80;99.90;;;;;;5059519;28;20118;-78
2022/01/18 03:10:47;;;;;;;41.03;5.00;;;6.80;99.90;;;;;;5062964;28;20036;-78
2022/01/18 03:13:13;;;;;;;32.97;5.22;;;6.80;99.90;;;;;;5082989;28;20113;-79
2022/01/18 03:15:38;;;;;;;37.95;5.38;;;6.80;99.90;;;;;;5057588;28;20155;-79
2022/01/18 03:18:07;;;;;;;32.15;6.50;;;6.80;99.90;;;;;;5071794;28;20048;-79
2022/01/18 03:20:33;;;;;;;36.08;5.43;;;6.80;99.90;;;;;;5072470;28;20123;-85
2022/01/18 03:22:59;;;;;;;36.75;4.68;;;6.80;99.90;;;;;;5057183;28;20040;-79
2022/01/18 03:28:06;;;;;;;35.13;4.57;;;6.80;99.90;;;;;;5065807;28;20055;-79
2022/01/18 03:30:42;;;;;;;38.92;6.28;;;6.80;99.90;;;;;;5061246;28;20040;-78
2022/01/18 03:33:11;;;;;;;32.22;5.20;;;6.80;99.90;;;;;;5079654;28;20048;-78
2022/01/18 03:35:37;;;;;;;30.75;4.30;;;6.90;99.90;;;;;;5087494;28;20439;-82
2022/01/18 03:38:03;;;;;;;40.70;4.40;;;6.80;99.90;;;;;;5071766;28;20048;-79
2022/01/18 03:40:29;;;;;;;29.02;3.95;;;6.80;99.90;;;;;;5059818;28;20076;-80
2022/01/18 03:42:56;;;;;;;27.35;4.07;;;6.80;99.90;;;;;;5077802;28;20078;-78
2022/01/18 03:45:25;;;;;;;30.40;3.38;;;6.90;99.90;;;;;;5074250;28;20072;-78
2022/01/18 03:47:51;;;;;;;28.30;4.03;;;6.80;99.90;;;;;;5069201;28;20472;-78
2022/01/18 03:50:17;;;;;;;23.08;3.92;;;6.80;99.90;;;;;;5084399;28;20055;-78
2022/01/18 03:52:45;;;;;;;23.60;3.38;;;6.80;99.90;;;;;;5068659;28;20413;-78
2022/01/18 03:55:13;;;;;;;27.48;3.28;;;6.90;99.90;;;;;;5083527;28;20053;-78
2022/01/18 03:57:39;;;;;;;23.13;4.22;;;6.80;99.90;;;;;;5088918;28;20076;-85
2022/01/18 04:00:08;;;;;;;23.38;4.07;;;6.80;99.90;;;;;;5051200;28;20071;-78
2022/01/18 04:02:34;;;;;;;22.98;4.05;;;6.80;99.90;;;;;;5072361;28;20112;-79
2022/01/18 04:05:00;;;;;;;27.75;4.93;;;6.80;99.90;;;;;;5082346;28;20134;-78
2022/01/18 04:07:26;;;;;;;23.95;4.32;;;6.80;99.90;;;;;;5071076;28;20044;-78
2022/01/18 04:09:52;;;;;;;30.08;5.13;;;6.70;99.90;;;;;;5080057;28;20055;-78
2022/01/18 04:12:17;;;;;;;26.25;4.65;;;6.70;99.90;;;;;;5069012;28;20052;-78
2022/01/18 04:14:44;;;;;;;26.55;5.38;;;6.70;99.90;;;;;;5073896;28;20504;-78
2022/01/18 04:27:45;;;;;;;22.67;5.20;;;6.60;99.90;;;;;;5084413;28;20398;-78
2022/01/18 04:30:11;;;;;;;23.38;4.05;;;6.60;99.90;;;;;;5089979;28;20060;-80
2022/01/18 04:32:36;;;;;;;22.33;4.22;;;6.60;99.90;;;;;;5088305;28;20052;-78
2022/01/18 04:35:02;;;;;;;16.35;3.83;;;6.60;99.90;;;;;;5071917;28;20466;-77
2022/01/18 04:37:29;;;;;;;22.70;3.67;;;6.60;99.90;;;;;;5078439;28;20080;-78
2022/01/18 04:39:54;;;;;;;22.85;4.07;;;6.60;99.90;;;;;;5075991;28;20125;-78
2022/01/18 04:50:37;;;;;;;25.10;3.83;;;6.60;99.90;;;;;;5050292;28;20520;-78
2022/01/18 04:53:03;;;;;;;28.38;3.70;;;6.60;99.90;;;;;;5089038;28;20044;-80
2022/01/18 04:55:32;;;;;;;21.67;3.40;;;6.60;99.90;;;;;;5078761;28;20060;-78
2022/01/18 04:57:58;;;;;;;25.17;4.05;;;6.60;99.90;;;;;;5087068;28;20109;-78
2022/01/18 05:00:25;;;;;;;29.52;4.30;;;6.60;99.90;;;;;;5077723;28;20044;-78
2022/01/18 05:02:52;;;;;;;25.55;3.50;;;6.50;99.90;;;;;;5086964;28;20397;-78
2022/01/18 05:05:27;;;;;;;18.45;2.95;;;6.50;99.90;;;;;;5063726;28;20051;-77
2022/01/18 05:07:55;;;;;;;15.88;3.47;;;6.60;99.90;;;;;;5082959;28;20782;-81
2022/01/18 05:10:23;;;;;;;20.90;3.15;;;6.60;99.90;;;;;;5074552;28;20139;-77
2022/01/18 05:12:52;;;;;;;16.10;2.90;;;6.50;99.90;;;;;;5066806;28;20044;-82
2022/01/18 05:23:04;;;;;;;14.55;2.15;;;6.50;99.90;;;;;;5078453;28;20074;-78
2022/01/18 05:25:31;;;;;;;27.25;2.80;;;6.50;99.90;;;;;;5061143;28;20052;-78
2022/01/18 05:27:59;;;;;;;12.05;2.28;;;6.50;99.90;;;;;;5064215;28;20055;-78
2022/01/18 05:30:25;;;;;;;19.45;2.30;;;6.50;99.90;;;;;;5076475;28;20106;-78
2022/01/18 05:32:51;;;;;;;20.13;2.85;;;6.50;99.90;;;;;;5061910;28;20127;-84
2022/01/18 05:35:19;;;;;;;16.08;2.10;;;6.50;99.90;;;;;;5067288;28;20132;-79
2022/01/18 05:37:48;;;;;;;16.27;2.80;;;6.50;99.90;;;;;;5074241;28;20051;-78
2022/01/18 05:40:15;;;;;;;15.07;2.97;;;6.50;99.90;;;;;;5058147;28;20051;-79
2022/01/18 05:42:42;;;;;;;14.15;2.00;;;6.50;99.90;;;;;;5080624;28;20048;-78
2022/01/18 05:45:09;;;;;;;13.15;2.05;;;6.50;99.90;;;;;;5060894;28;20127;-77
2022/01/18 05:47:36;;;;;;;14.25;2.35;;;6.60;99.90;;;;;;5064448;28;20052;-78
2022/01/18 05:50:04;;;;;;;12.55;2.78;;;6.60;99.90;;;;;;5088781;28;20056;-78
2022/01/18 05:52:30;;;;;;;14.07;2.25;;;6.60;99.90;;;;;;5093261;28;20469;-78
2022/01/18 05:54:55;;;;;;;9.48;1.98;;;6.60;99.90;;;;;;5067747;28;20046;-82
2022/01/18 05:57:21;;;;;;;16.00;4.00;;;6.60;99.90;;;;;;5082212;28;20035;-78
2022/01/18 05:59:48;;;;;;;16.70;3.70;;;6.70;99.90;;;;;;5091566;28;20082;-79
2022/01/18 06:02:17;;;;;;;19.60;3.00;;;6.60;99.90;;;;;;5050674;28;20828;-78
2022/01/18 06:07:28;;;;;;;16.58;2.97;;;6.70;99.90;;;;;;5084215;28;20112;-78
2022/01/18 06:09:56;;;;;;;19.92;3.58;;;6.70;99.90;;;;;;5066248;28;20745;-83
2022/01/18 06:12:23;;;;;;;16.58;2.65;;;6.70;99.90;;;;;;5082130;28;20397;-78
2022/01/18 06:14:49;;;;;;;10.25;2.15;;;6.60;99.90;;;;;;5059982;28;20048;-79
2022/01/18 06:17:15;;;;;;;17.13;3.38;;;6.70;99.90;;;;;;5075554;28;20173;-78
2022/01/18 06:19:41;;;;;;;11.30;2.70;;;6.70;99.90;;;;;;5081051;28;20126;-79
2022/01/18 06:22:06;;;;;;;14.75;3.10;;;6.70;99.90;;;;;;5084235;28;20044;-80
2022/01/18 06:24:32;;;;;;;13.65;3.75;;;6.70;99.90;;;;;;5053274;28;20039;-79
2022/01/18 06:26:58;;;;;;;14.93;3.30;;;6.60;99.90;;;;;;5101747;28;20420;-83
2022/01/18 06:29:24;;;;;;;16.35;3.55;;;6.60;99.90;;;;;;5078518;28;20048;-80
2022/01/18 06:31:50;;;;;;;23.52;2.88;;;6.50;99.90;;;;;;5065383;28;20043;-79
2022/01/18 06:34:15;;;;;;;20.05;2.70;;;6.50;99.90;;;;;;5075541;28;20059;-80
2022/01/18 06:36:42;;;;;;;17.45;3.78;;;6.50;99.90;;;;;;5037897;28;20477;-78
2022/01/18 06:39:07;;;;;;;14.57;3.83;;;6.50;99.90;;;;;;5080821;28;20082;-78
2022/01/18 06:41:33;;;;;;;16.10;2.80;;;6.50;99.90;;;;;;5065772;28;20075;-78
2022/01/18 06:43:59;;;;;;;12.82;2.83;;;6.50;99.90;;;;;;5051054;28;20131;-82
2022/01/18 06:46:25;;;;;;;18.00;2.75;;;6.50;99.90;;;;;;5069064;28;20054;-78
2022/01/18 06:48:51;;;;;;;19.33;3.53;;;6.40;99.90;;;;;;5048357;28;20060;-80
2022/01/18 06:51:17;;;;;;;17.63;2.92;;;6.50;99.90;;;;;;5078901;28;20040;-77
2022/01/18 06:53:45;;;;;;;15.18;3.20;;;6.50;99.90;;;;;;5058411;28;20036;-77
2022/01/18 06:56:13;;;;;;;17.33;2.28;;;6.40;99.90;;;;;;5078082;28;20055;-79
2022/01/18 06:58:39;;;;;;;16.13;3.03;;;6.40;99.90;;;;;;5075020;28;20099;-79
2022/01/18 07:01:06;;;;;;;18.92;3.38;;;6.50;99.90;;;;;;5042813;28;20059;-79
2022/01/18 07:03:31;;;;;;;14.02;3.42;;;6.40;99.90;;;;;;5061744;28;20041;-79
2022/01/18 07:05:57;;;;;;;16.83;3.78;;;6.40;99.90;;;;;;5068645;28;20060;-79
2022/01/18 07:08:23;;;;;;;19.95;3.20;;;6.40;99.90;;;;;;5052801;28;20045;-79
2022/01/18 07:10:48;;;;;;;22.02;3.00;;;6.40;99.90;;;;;;5053564;28;20048;-80
2022/01/18 07:13:14;;;;;;;17.45;2.92;;;6.30;99.90;;;;;;5073005;28;20131;-80
2022/01/18 07:15:41;;;;;;;15.55;2.97;;;6.30;99.90;;;;;;5086965;28;20043;-79
2022/01/18 07:18:07;;;;;;;13.40;2.90;;;6.30;99.90;;;;;;5087260;28;21938;-80
2022/01/18 07:20:34;;;;;;;16.80;2.92;;;6.20;99.90;;;;;;5087317;28;20492;-79
2022/01/18 07:22:59;;;;;;;17.52;2.70;;;6.20;99.90;;;;;;5087715;28;20055;-79
2022/01/18 07:25:26;;;;;;;15.70;3.30;;;6.20;99.90;;;;;;5062480;28;20035;-80
2022/01/18 07:27:52;;;;;;;16.10;3.25;;;6.20;99.90;;;;;;5077848;28;20083;-81
2022/01/18 07:30:18;;;;;;;18.08;3.60;;;6.20;99.90;;;;;;5074595;28;20153;-81
2022/01/18 07:32:43;;;;;;;18.45;3.58;;;6.30;99.90;;;;;;5060581;28;20470;-79
2022/01/18 07:35:11;;;;;;;22.25;4.07;;;6.30;99.90;;;;;;5082126;28;20048;-78
2022/01/18 07:37:37;;;;;;;22.20;3.55;;;6.30;99.90;;;;;;5064476;28;20052;-80
2022/01/18 07:40:05;;;;;;;16.40;3.20;;;6.20;99.90;;;;;;5079033;28;20051;-79
2022/01/18 07:42:31;;;;;;;19.33;3.30;;;6.20;99.90;;;;;;5060401;28;21621;-79
2022/01/18 07:44:57;;;;;;;22.02;3.17;;;6.20;99.90;;;;;;5074025;28;20370;-78
2022/01/18 07:47:23;;;;;;;17.67;3.60;;;6.20;99.90;;;;;;5075751;28;20052;-79
2022/01/18 07:49:49;;;;;;;20.60;4.07;;;6.20;99.90;;;;;;5078531;28;20393;-80
2022/01/18 07:52:18;;;;;;;22.48;3.63;;;6.30;99.90;;;;;;5068758;28;20043;-80
2022/01/18 07:54:45;;;;;;;15.43;3.53;;;6.30;99.90;;;;;;5065052;28;20131;-80
2022/01/18 07:57:12;;;;;;;23.45;3.78;;;6.30;99.90;;;;;;5085085;28;20116;-80
2022/01/18 07:59:38;;;;;;;17.67;3.47;;;6.30;99.90;;;;;;5054731;28;20086;-81
2022/01/18 08:02:04;;;;;;;17.35;4.03;;;6.30;99.90;;;;;;5038588;28;20091;-79
2022/01/18 08:04:29;;;;;;;21.65;4.00;;;6.30;99.90;;;;;;5059007;28;20051;-81
2022/01/18 08:06:55;;;;;;;20.77;4.80;;;6.30;99.90;;;;;;5075773;28;20043;-79
2022/01/18 08:09:22;;;;;;;18.17;4.00;;;6.40;99.90;;;;;;5088600;28;20090;-78
2022/01/18 08:11:47;;;;;;;22.02;4.10;;;6.30;99.90;;;;;;5069772;28;20055;-78
2022/01/18 08:14:16;;;;;;;21.67;4.63;;;6.30;99.90;;;;;;5076031;28;20131;-79
2022/01/18 08:19:11;;;;;;;20.77;3.97;;;6.30;99.90;;;;;;5082061;28;20052;-83
2022/01/18 08:21:37;;;;;;;17.10;4.13;;;6.30;99.90;;;;;;5054400;28;20047;-79
2022/01/18 08:24:03;;;;;;;18.27;3.90;;;6.30;99.90;;;;;;5078005;28;20067;-80
2022/01/18 08:26:29;;;;;;;15.27;4.20;;;6.30;99.90;;;;;;5073409;28;20134;-78
2022/01/18 08:28:54;;;;;;;10.00;3.63;;;6.40;99.90;;;;;;5080922;28;20048;-79
2022/01/18 08:31:20;;;;;;;16.02;3.42;;;6.40;99.90;;;;;;5073096;28;20044;-79
2022/01/18 08:33:46;;;;;;;16.15;4.32;;;6.40;99.90;;;;;;5056850;28;20036;-78
2022/01/18 08:36:11;;;;;;;18.85;3.88;;;6.40;99.90;;;;;;5061934;28;20056;-85
2022/01/18 08:38:39;;;;;;;10.88;3.60;;;6.40;99.90;;;;;;5087901;28;20055;-78
2022/01/18 08:41:06;;;;;;;20.08;4.95;;;6.40;99.90;;;;;;5059180;28;20047;-80
2022/01/18 08:43:32;;;;;;;19.05;4.60;;;6.40;99.90;;;;;;5067136;28;20067;-78
2022/01/18 08:46:03;;;;;;;20.70;4.40;;;6.40;99.90;;;;;;5056270;28;20062;-78
2022/01/18 08:48:29;;;;;;;19.90;5.10;;;6.40;99.90;;;;;;5090419;28;20151;-81
2022/01/18 08:50:56;;;;;;;20.10;5.97;;;6.50;99.90;;;;;;5061894;28;20425;-79
2022/01/18 08:53:21;;;;;;;18.90;4.70;;;6.50;99.90;;;;;;5075167;28;20044;-78
2022/01/18 08:55:47;;;;;;;20.77;4.65;;;6.50;99.90;;;;;;5079278;28;20384;-78
2022/01/18 08:58:13;;;;;;;15.85;4.78;;;6.60;99.90;;;;;;5075264;28;20078;-78
2022/01/18 09:00:39;;;;;;;20.80;4.60;;;6.60;99.90;;;;;;5083182;28;20063;-77
2022/01/18 09:03:05;;;;;;;20.75;5.22;;;6.60;99.90;;;;;;5075706;28;20583;-78
2022/01/18 09:05:31;;;;;;;15.77;5.53;;;6.70;99.90;;;;;;5083961;28;20378;-78
2022/01/18 09:08:01;;;;;;;22.33;5.10;;;6.70;99.90;;;;;;5108373;28;20085;-79
2022/01/18 09:10:27;;;;;;;16.23;4.30;;;6.70;99.90;;;;;;5057149;28;20036;-79
2022/01/18 09:12:53;;;;;;;21.48;3.63;;;6.80;99.90;;;;;;5075683;28;20043;-80
2022/01/18 09:15:19;;;;;;;15.90;3.30;;;6.80;99.90;;;;;;5082309;28;20103;-84
2022/01/18 09:17:45;;;;;;;15.75;3.70;;;6.80;99.90;;;;;;5095034;28;20123;-81
2022/01/18 09:20:13;;;;;;;18.67;4.32;;;6.80;99.90;;;;;;5064005;28;20106;-80
2022/01/18 09:22:43;;;;;;;25.17;4.63;;;6.80;99.90;;;;;;5074466;28;20119;-79
2022/01/18 09:25:12;;;;;;;16.35;3.92;;;6.90;99.90;;;;;;5077239;28;20055;-80
2022/01/18 09:27:38;;;;;;;14.20;3.47;;;6.90;99.90;;;;;;5087512;28;20396;-79
2022/01/18 09:30:05;;;;;;;14.63;3.00;;;6.90;99.90;;;;;;5088797;28;20525;-80
2022/01/18 09:32:30;;;;;;;12.77;3.60;;;7.00;99.90;;;;;;5090884;28;20404;-79
2022/01/18 09:34:56;;;;;;;13.43;3.28;;;7.00;99.90;;;;;;5069394;28;20040;-80
2022/01/18 09:37:22;;;;;;;14.95;3.58;;;7.10;99.90;;;;;;5091605;28;20089;-82
2022/01/18 09:39:48;;;;;;;17.05;3.35;;;7.00;99.90;;;;;;5073754;28;20048;-80
2022/01/18 09:42:16;;;;;;;19.63;3.50;;;7.10;99.90;;;;;;5057882;28;20048;-80
2022/01/18 09:44:42;;;;;;;10.65;3.42;;;7.10;99.90;;;;;;5086044;28;20100;-80
2022/01/18 09:47:08;;;;;;;14.25;4.18;;;7.10;99.90;;;;;;5077084;28;20130;-79
2022/01/18 09:49:33;;;;;;;15.65;4.22;;;7.20;99.90;;;;;;5053660;28;20052;-81
2022/01/18 09:51:59;;;;;;;11.73;2.90;;;7.20;99.90;;;;;;5058709;28;20048;-81
2022/01/18 09:54:25;;;;;;;15.60;3.95;;;7.30;99.90;;;;;;5070442;28;20050;-81
2022/01/18 09:56:51;;;;;;;17.85;4.20;;;7.30;99.90;;;;;;5078472;28;20055;-80
2022/01/18 09:59:17;;;;;;;15.23;5.47;;;7.40;99.90;;;;;;5089072;28;20054;-79
2022/01/18 10:01:43;;;;;;;14.15;4.05;;;7.40;99.90;;;;;;5091502;28;20281;-81
2022/01/18 10:04:18;;;;;;;19.25;4.85;;;7.40;99.90;;;;;;5062651;28;20048;-80
2022/01/18 10:06:50;;;;;;;17.25;5.47;;;7.50;99.90;;;;;;5057032;28;20040;-79
2022/01/18 10:09:17;;;;;;;23.17;5.55;;;7.60;99.90;;;;;;5078098;28;20494;-79
2022/01/18 10:12:01;;;;;;;17.45;5.22;;;7.60;99.90;;;;;;5076173;28;20039;-81
2022/01/18 10:14:29;;;;;;;19.63;6.25;;;7.60;99.90;;;;;;5085707;28;20389;-83
2022/01/18 10:16:54;;;;;;;17.35;5.20;;;7.40;99.90;;;;;;5064972;28;20059;-80
2022/01/18 10:19:41;;;;;;;23.85;5.35;;;7.50;99.90;;;;;;5064198;28;20051;-82
2022/01/18 10:22:15;;;;;;;;;;;7.50;99.90;;;;;;5080968;28;20140;-80
2022/01/18 10:24:42;;;;;;;13.18;4.95;;;7.40;99.90;;;;;;5063763;28;19931;-80
2022/01/18 10:27:08;;;;;;;15.60;5.28;;;7.50;99.90;;;;;;5070982;28;20052;-79
2022/01/18 10:29:37;;;;;;;16.90;4.90;;;7.60;99.90;;;;;;5071867;28;20590;-80
2022/01/18 10:32:15;;;;;;;16.90;5.28;;;7.70;99.90;;;;;;5087542;28;20404;-80
2022/01/18 10:37:28;;;;;;;19.42;5.35;;;7.60;99.90;;;;;;5078648;28;20051;-80
2022/01/18 10:39:56;;;;;;;18.88;6.00;;;7.60;99.90;;;;;;5075628;28;20078;-79
2022/01/18 10:42:31;;;;;;;18.77;5.60;;;7.60;99.90;;;;;;5082593;28;20035;-79
2022/01/18 10:45:28;;;;;;;19.10;6.65;;;7.70;99.90;;;;;;5067423;28;20116;-78
2022/01/18 10:48:11;;;;;;;18.25;5.32;;;7.80;99.90;;;;;;5081383;28;20064;-80
2022/01/18 10:50:39;;;;;;;18.20;4.97;;;7.90;99.90;;;;;;5077590;28;20047;-82
2022/01/18 10:53:22;;;;;;;20.83;5.15;;;8.00;99.90;;;;;;5084082;28;20048;-80
2022/01/18 10:56:11;;;;;;;18.83;4.93;;;8.20;99.90;;;;;;5072826;28;20044;-78
2022/01/18 10:58:47;;;;;;;18.73;5.20;;;8.30;99.90;;;;;;5062703;28;20047;-79
2022/01/18 11:01:17;;;;;;;22.75;6.70;;;8.20;99.90;;;;;;5083952;28;20812;-78
2022/01/18 11:04:07;;;;;;;13.32;4.90;;;8.20;99.90;;;;;;5076797;28;20040;-79
2022/01/18 11:06:34;;;;;;;28.67;6.57;;;8.10;99.90;;;;;;5080347;28;20040;-83
2022/01/18 11:09:11;;;;;;;13.40;5.97;;;8.10;99.90;;;;;;5085002;28;20047;-80
2022/01/18 11:11:45;;;;;;;14.18;4.93;;;8.10;99.90;;;;;;5067595;28;20181;-79
2022/01/18 11:14:13;;;;;;;15.48;4.10;;;8.10;99.90;;;;;;5062273;28;20197;-80
2022/01/18 11:16:43;;;;;;;19.17;4.50;;;8.10;99.90;;;;;;5078963;28;20044;-80
2022/01/18 11:19:28;;;;;;;18.15;5.55;;;8.00;99.90;;;;;;5069838;28;20062;-81
2022/01/18 11:22:10;;;;;;;20.88;5.60;;;8.10;99.90;;;;;;5074485;28;20273;-80
2022/01/18 11:24:42;;;;;;;12.40;3.30;;;8.10;99.90;;;;;;5086365;28;20561;-78
2022/01/18 11:27:13;;;;;;;17.13;4.95;;;8.10;99.90;;;;;;5081035;28;20245;-79
2022/01/18 11:29:44;;;;;;;14.77;4.03;;;8.00;99.90;;;;;;5071339;28;20054;-80
2022/01/18 11:32:11;;;;;;;12.00;3.50;;;7.90;99.90;;;;;;5091517;28;20123;-81
2022/01/18 11:34:54;;;;;;;15.57;4.35;;;7.90;99.90;;;;;;5078513;28;20043;-83
2022/01/18 11:37:26;;;;;;;20.23;3.78;;;7.90;99.90;;;;;;5062422;28;20505;-79
2022/01/18 11:40:06;;;;;;;17.52;3.90;;;7.80;99.90;;;;;;5077514;28;20040;-78
2022/01/18 11:42:40;;;;;;;13.95;4.10;;;7.80;99.90;;;;;;5084383;28;20047;-80
2022/01/18 11:45:33;;;;;;;12.95;3.63;;;7.90;99.90;;;;;;5066499;28;20079;-81
2022/01/18 11:48:19;;;;;;;13.68;3.75;;;8.00;99.90;;;;;;5076043;28;20070;-81
2022/01/18 11:51:05;;;;;;;17.93;3.80;;;8.00;99.90;;;;;;5064364;28;20040;-81
2022/01/18 11:54:18;;;;;;;15.35;3.63;;;8.00;99.90;;;;;;5085603;28;20062;-82
2022/01/18 11:56:37;;;;;;;17.15;4.22;;;8.20;99.90;;;;;;5070622;28;20557;-82
2022/01/18 11:59:27;;;;;;;14.07;3.40;;;8.20;99.90;;;;;;5077787;28;20055;-81
2022/01/18 12:01:57;;;;;;;16.13;4.47;;;8.20;99.90;;;;;;5084013;28;20116;-81
2022/01/18 12:04:46;;;;;;;13.60;3.58;;;8.20;99.90;;;;;;5085101;28;20065;-83
2022/01/18 12:07:36;;;;;;;12.90;3.22;;;8.10;99.90;;;;;;5059558;28;20039;-81
2022/01/18 12:10:08;;;;;;;17.08;3.10;;;8.20;99.90;;;;;;5067032;28;20404;-80
2022/01/18 12:12:45;;;;;;;18.30;4.13;;;8.20;99.90;;;;;;5088558;28;20048;-81
2022/01/18 12:15:19;;;;;;;14.00;3.20;;;8.20;99.90;;;;;;5089555;28;20116;-80
2022/01/18 12:17:53;;;;;;;20.02;3.92;;;8.20;99.90;;;;;;5071658;28;20047;-80
2022/01/18 12:20:43;;;;;;;9.10;2.80;;;8.10;99.90;;;;;;5085801;28;20044;-81
2022/01/18 12:23:12;;;;;;;14.68;2.80;;;8.00;99.90;;;;;;5089018;28;20047;-80
2022/01/18 12:34:28;;;;;;;;;;;7.60;99.90;;;;;;5095819;28;20056;-79
2022/01/18 12:36:56;;;;;;;11.25;3.28;;;7.60;99.90;;;;;;5094779;28;19923;-79
2022/01/18 12:39:23;;;;;;;13.43;3.00;;;7.70;99.90;;;;;;5095812;28;20051;-78
2022/01/18 12:41:55;;;;;;;13.02;3.20;;;7.70;99.90;;;;;;5095556;28;20400;-78
2022/01/18 12:44:22;;;;;;;12.48;3.13;;;7.70;99.90;;;;;;5071985;28;20070;-79
2022/01/18 12:46:59;;;;;;;12.45;3.90;;;7.80;99.90;;;;;;5076114;28;20073;-79
2022/01/18 12:49:27;;;;;;;12.30;2.90;;;7.90;99.90;;;;;;5045622;28;20059;-79
2022/01/18 12:51:58;;;;;;;16.40;2.50;;;7.90;99.90;;;;;;5087300;28;20131;-80
2022/01/18 12:54:44;;;;;;;10.95;2.47;;;7.90;99.90;;;;;;5086272;28;20043;-81
2022/01/18 12:57:13;;;;;;;7.30;2.40;;;7.80;99.90;;;;;;5099354;28;20118;-79
2022/01/18 12:59:59;;;;;;;13.93;2.88;;;7.70;99.90;;;;;;5065911;28;20086;-79
2022/01/18 13:02:25;;;;;;;;;;;7.60;99.90;;;;;;5075881;28;20115;-79
2022/01/18 13:04:57;;;;;;;8.83;2.37;;;7.60;99.90;;;;;;5069260;28;19923;-79
2022/01/18 13:07:24;;;;;;;11.43;2.83;;;7.50;99.90;;;;;;5075322;28;20297;-81
2022/01/18 13:09:58;;;;;;;13.35;2.97;;;7.50;99.90;;;;;;5075338;28;20500;-79
2022/01/18 13:12:35;;;;;;;11.23;2.67;;;7.50;99.90;;;;;;5075412;28;20083;-79
2022/01/18 13:15:04;;;;;;;14.25;3.42;;;7.40;99.90;;;;;;5050448;28;20441;-78
2022/01/18 13:23:19;;;;;;;18.23;3.70;;;7.50;99.90;;;;;;5080888;28;20044;-78
2022/01/18 13:25:57;;;;;;;12.77;3.40;;;7.50;99.90;;;;;;5089464;28;20040;-79
2022/01/18 13:28:38;;;;;;;11.63;3.70;;;7.50;99.90;;;;;;5078909;28;20124;-78
2022/01/18 13:31:22;;;;;;;14.27;4.18;;;7.60;99.90;;;;;;5081622;28;20493;-79
2022/01/18 13:34:00;;;;;;;17.95;3.40;;;7.60;99.90;;;;;;5071483;28;20044;-78
2022/01/18 13:36:32;;;;;;;15.30;4.28;;;7.70;99.90;;;;;;5079422;28;20048;-77
2022/01/18 13:39:46;;;;;;;25.65;5.78;;;7.70;99.90;;;;;;5082172;28;20059;-78
2022/01/18 13:42:14;;;;;;;16.52;4.80;;;7.70;99.90;;;;;;5072401;28;20068;-77
2022/01/18 13:45:00;;;;;;;18.95;5.57;;;7.60;99.90;;;;;;5076638;28;20037;-78
2022/01/18 13:47:25;;;;;;;15.43;4.32;;;7.50;99.90;;;;;;5082993;28;20130;-78
2022/01/18 13:49:51;;;;;;;22.30;4.88;;;7.40;99.90;;;;;;5078440;28;20438;-81
2022/01/18 13:52:17;;;;;;;15.90;5.05;;;7.50;99.90;;;;;;5047503;28;20047;-77
2022/01/18 13:54:52;;;;;;;15.40;4.57;;;7.50;99.90;;;;;;5080540;28;20086;-77
2022/01/18 13:57:22;;;;;;;16.10;4.40;;;7.50;99.90;;;;;;5087271;28;20101;-81
2022/01/18 13:59:51;;;;;;;21.52;5.70;;;7.50;99.90;;;;;;5065231;28;20044;-78
2022/01/18 14:02:19;;;;;;;14.77;4.80;;;7.60;99.90;;;;;;5074406;28;20374;-77
2022/01/18 14:04:46;;;;;;;20.63;5.45;;;7.40;99.90;;;;;;5091558;28;20047;-81
2022/01/18 14:07:13;;;;;;;13.75;5.05;;;7.30;99.90;;;;;;5075298;28;20081;-78
2022/01/18 14:09:39;;;;;;;18.08;5.15;;;7.40;99.90;;;;;;5081597;28;20091;-77
2022/01/18 14:12:14;;;;;;;19.90;6.63;;;7.40;99.90;;;;;;5084377;28;20051;-77
2022/01/18 14:14:42;;;;;;;22.83;6.13;;;7.30;99.90;;;;;;5060634;28;20071;-76
2022/01/18 14:17:15;;;;;;;19.50;5.60;;;7.30;99.90;;;;;;5097760;28;20065;-78
2022/01/18 14:19:44;;;;;;;17.38;5.75;;;7.30;99.90;;;;;;5089017;28;20118;-78
2022/01/18 14:22:27;;;;;;;16.65;7.03;;;7.30;99.90;;;;;;5079244;28;20397;-78
2022/01/18 14:25:04;;;;;;;20.85;5.30;;;7.30;99.90;;;;;;5074519;28;20047;-82
2022/01/18 14:27:34;;;;;;;19.10;6.05;;;7.30;99.90;;;;;;5074708;28;20102;-78